Time;durP1;ratioP1;P1;durP2;ratioP2;P2;SDS_P1;SDS_P2;PMS_P1;PMS_P2;Temp;Humidity;BMP_temperature;BMP_pressure;BME280_temperature;BME280_humidity;BME280_pressure;Samples;Min_cycle;Max_cycle;Signal;HPM_P1;HPM_P2
2022/07/12 00:01:04;;;;;;;1.17;1.08;;;19.20;74.70;;;;;;5012964;28;20018;-37
2022/07/12 00:03:30;;;;;;;1.30;1.20;;;19.20;74.80;;;;;;5012673;28;20129;-32
2022/07/12 00:05:56;;;;;;;1.48;1.38;;;19.10;74.80;;;;;;5012790;28;20084;-29
2022/07/12 00:08:22;;;;;;;3.33;1.17;;;19.10;74.90;;;;;;5013236;28;20105;-29
2022/07/12 00:10:48;;;;;;;1.25;1.00;;;19.10;74.90;;;;;;5012118;28;20351;-30
2022/07/12 00:13:15;;;;;;;1.13;1.02;;;19.10;75.00;;;;;;5012587;28;20074;-31
2022/07/12 00:15:41;;;;;;;1.05;0.98;;;19.10;75.10;;;;;;5012792;28;20038;-31
2022/07/12 00:18:06;;;;;;;1.10;1.00;;;19.00;75.10;;;;;;5012519;28;20144;-29
2022/07/12 00:20:32;;;;;;;1.33;1.13;;;19.00;75.20;;;;;;5012789;28;20018;-32
2022/07/12 00:22:57;;;;;;;4.05;1.30;;;19.00;75.30;;;;;;5012348;28;20049;-32
2022/07/12 00:25:23;;;;;;;1.20;1.20;;;18.90;75.30;;;;;;5012663;28;20100;-33
2022/07/12 00:27:49;;;;;;;1.48;1.17;;;18.90;75.40;;;;;;5012342;28;20048;-31
2022/07/12 00:30:15;;;;;;;1.35;1.23;;;18.90;75.50;;;;;;5012404;28;20342;-29
2022/07/12 00:32:43;;;;;;;1.15;1.05;;;18.90;75.50;;;;;;5012168;28;20040;-33
2022/07/12 00:35:09;;;;;;;1.50;1.10;;;18.90;75.60;;;;;;5012555;28;20022;-32
2022/07/12 00:37:34;;;;;;;1.20;1.10;;;18.90;75.70;;;;;;5012566;28;20018;-32
2022/07/12 00:40:00;;;;;;;1.08;1.05;;;18.90;75.80;;;;;;5012048;28;20033;-35
2022/07/12 00:42:27;;;;;;;1.20;1.10;;;18.80;75.90;;;;;;5012332;28;20030;-29
2022/07/12 00:44:52;;;;;;;1.10;1.10;;;18.80;76.00;;;;;;5011981;28;20113;-30
2022/07/12 00:47:40;;;;;;;1.20;1.10;;;18.80;76.00;;;;;;5012228;28;20088;-29
2022/07/12 00:50:12;;;;;;;1.08;1.00;;;18.80;76.20;;;;;;5012939;28;20068;-30
2022/07/12 00:52:38;;;;;;;1.50;1.40;;;18.70;76.20;;;;;;5012065;28;20029;-29
2022/07/12 00:55:05;;;;;;;1.45;1.23;;;18.70;76.20;;;;;;5010720;28;20410;-30
2022/07/12 00:57:33;;;;;;;2.10;1.20;;;18.70;76.30;;;;;;5012736;28;20022;-29
2022/07/12 00:59:59;;;;;;;1.30;1.20;;;18.70;76.40;;;;;;5012089;28;20141;-29
2022/07/12 01:02:24;;;;;;;2.08;1.30;;;18.70;76.50;;;;;;5012140;28;20049;-29
2022/07/12 01:04:51;;;;;;;1.25;1.15;;;18.70;76.50;;;;;;5011709;28;20057;-30
2022/07/12 01:07:17;;;;;;;1.65;1.30;;;18.70;76.60;;;;;;5012264;28;20033;-30
2022/07/12 01:09:44;;;;;;;2.33;1.40;;;18.60;76.60;;;;;;5011871;28;20026;-31
2022/07/12 01:12:10;;;;;;;2.72;1.52;;;18.70;76.70;;;;;;5011599;28;20172;-30
2022/07/12 01:14:37;;;;;;;1.38;1.27;;;18.60;76.70;;;;;;5011695;28;20053;-36
2022/07/12 01:17:03;;;;;;;1.50;1.40;;;18.60;76.70;;;;;;5012474;28;20046;-30
2022/07/12 01:19:29;;;;;;;2.47;1.27;;;18.60;76.80;;;;;;5011990;28;20101;-33
2022/07/12 01:21:57;;;;;;;1.65;1.55;;;18.60;76.80;;;;;;5013247;28;20125;-30
2022/07/12 01:24:23;;;;;;;1.40;1.30;;;18.60;77.00;;;;;;5014476;28;20048;-33
2022/07/12 01:26:50;;;;;;;1.40;1.30;;;18.60;77.00;;;;;;5015434;28;20033;-31
2022/07/12 01:29:16;;;;;;;1.40;1.35;;;18.50;77.10;;;;;;5014536;28;20048;-30
2022/07/12 01:31:42;;;;;;;1.67;1.40;;;18.50;77.20;;;;;;5015718;28;20021;-30
2022/07/12 01:34:08;;;;;;;2.40;1.58;;;18.50;77.20;;;;;;5015545;28;20076;-32
2022/07/12 01:36:34;;;;;;;1.60;1.50;;;18.50;77.30;;;;;;5016203;28;20328;-30
2022/07/12 01:39:00;;;;;;;1.45;1.35;;;18.50;77.30;;;;;;5015772;28;20075;-30
2022/07/12 01:41:26;;;;;;;2.65;1.75;;;18.50;77.40;;;;;;5016073;28;20018;-31
2022/07/12 01:43:52;;;;;;;1.55;1.45;;;18.40;77.30;;;;;;5015486;28;20022;-31
2022/07/12 01:46:18;;;;;;;1.52;1.42;;;18.40;77.40;;;;;;5015471;28;20045;-30
2022/07/12 01:48:44;;;;;;;1.30;1.20;;;18.40;77.40;;;;;;5014151;28;20022;-30
2022/07/12 01:51:10;;;;;;;1.50;1.40;;;18.40;77.40;;;;;;5015562;28;20060;-30
2022/07/12 01:53:36;;;;;;;1.48;1.38;;;18.40;77.40;;;;;;5015544;28;20022;-31
2022/07/12 01:56:05;;;;;;;3.00;1.60;;;18.30;77.40;;;;;;5015328;28;20469;-37
2022/07/12 01:58:31;;;;;;;2.95;1.50;;;18.30;77.40;;;;;;5015220;28;20458;-31
2022/07/12 02:00:57;;;;;;;1.50;1.40;;;18.30;77.40;;;;;;5015681;28;20190;-30
2022/07/12 02:03:23;;;;;;;2.83;1.80;;;18.30;77.50;;;;;;5015054;28;20068;-32
2022/07/12 02:05:49;;;;;;;1.77;1.67;;;18.30;77.60;;;;;;5015247;28;20042;-30
2022/07/12 02:08:15;;;;;;;2.92;1.48;;;18.20;77.50;;;;;;5015257;28;20029;-30
2022/07/12 02:10:41;;;;;;;1.70;1.60;;;18.20;77.50;;;;;;5015093;28;20547;-31
2022/07/12 02:13:07;;;;;;;2.42;1.60;;;18.20;77.60;;;;;;5015156;28;20109;-32
2022/07/12 02:15:32;;;;;;;1.40;1.30;;;18.20;77.60;;;;;;5013666;28;20056;-30
2022/07/12 02:17:58;;;;;;;1.70;1.60;;;18.20;77.60;;;;;;5014721;28;20393;-30
2022/07/12 02:20:24;;;;;;;2.13;1.45;;;18.20;77.60;;;;;;5015127;28;20029;-30
2022/07/12 02:22:49;;;;;;;1.60;1.50;;;18.10;77.70;;;;;;5014616;28;20472;-30
2022/07/12 02:25:15;;;;;;;1.70;1.60;;;18.10;77.80;;;;;;5014531;28;20116;-28
2022/07/12 02:27:41;;;;;;;1.80;1.70;;;18.10;77.80;;;;;;5014485;28;20026;-29
2022/07/12 02:30:08;;;;;;;1.63;1.52;;;18.10;77.90;;;;;;5014361;28;20022;-29
2022/07/12 02:32:33;;;;;;;1.67;1.58;;;18.10;77.90;;;;;;5014181;28;20025;-28
2022/07/12 02:34:59;;;;;;;1.73;1.63;;;18.10;77.90;;;;;;5013969;28;20033;-34
2022/07/12 02:37:25;;;;;;;1.70;1.60;;;18.10;77.90;;;;;;5014557;28;20023;-29
2022/07/12 02:39:51;;;;;;;2.00;1.90;;;18.10;77.90;;;;;;5014672;28;20041;-31
2022/07/12 02:42:16;;;;;;;1.90;1.80;;;18.00;78.00;;;;;;5012938;28;20076;-29
2022/07/12 02:44:42;;;;;;;4.43;2.05;;;18.00;78.10;;;;;;5014404;28;20370;-29
2022/07/12 02:47:08;;;;;;;2.10;1.90;;;18.00;78.20;;;;;;5014370;28;20421;-30
2022/07/12 02:49:33;;;;;;;2.42;2.00;;;17.90;78.20;;;;;;5014396;28;20049;-30
2022/07/12 02:51:59;;;;;;;2.10;2.00;;;17.90;78.40;;;;;;5013962;28;20022;-29
2022/07/12 02:54:24;;;;;;;1.80;1.70;;;17.90;78.40;;;;;;5014235;28;20034;-30
2022/07/12 02:56:50;;;;;;;2.00;1.80;;;17.90;78.50;;;;;;5014456;28;20105;-31
2022/07/12 02:59:15;;;;;;;2.47;2.17;;;17.90;78.50;;;;;;5014000;28;20046;-30
2022/07/12 03:01:41;;;;;;;2.08;1.98;;;17.90;78.60;;;;;;5012365;28;20029;-32
2022/07/12 03:04:07;;;;;;;3.15;2.15;;;17.90;78.60;;;;;;5012241;28;20050;-29
2022/07/12 03:06:32;;;;;;;2.65;2.10;;;17.90;79.30;;;;;;5013779;28;20026;-32
2022/07/12 03:08:58;;;;;;;2.22;2.03;;;17.90;78.80;;;;;;5014001;28;20025;-29
2022/07/12 03:11:23;;;;;;;3.20;2.20;;;17.90;78.90;;;;;;5013897;28;20026;-30
2022/07/12 03:13:49;;;;;;;2.58;2.25;;;17.80;78.90;;;;;;5013746;28;20025;-34
2022/07/12 03:16:15;;;;;;;2.30;2.05;;;17.80;79.00;;;;;;5014100;28;20022;-30
2022/07/12 03:18:40;;;;;;;2.30;2.10;;;17.80;79.10;;;;;;5013990;28;20449;-30
2022/07/12 03:21:07;;;;;;;2.50;2.30;;;17.80;79.10;;;;;;5012205;28;20525;-30
2022/07/12 03:23:33;;;;;;;2.60;2.40;;;17.80;79.20;;;;;;5013621;28;20018;-34
2022/07/12 03:25:58;;;;;;;3.28;2.70;;;17.80;79.30;;;;;;5012179;28;20033;-29
2022/07/12 03:28:25;;;;;;;3.10;2.50;;;17.70;79.40;;;;;;5013632;28;20044;-29
2022/07/12 03:30:51;;;;;;;3.03;2.30;;;17.70;79.50;;;;;;5013359;28;20131;-30
2022/07/12 03:33:16;;;;;;;2.30;2.00;;;17.70;79.50;;;;;;5013682;28;20545;-31
2022/07/12 03:35:42;;;;;;;4.65;2.50;;;17.70;79.50;;;;;;5013204;28;20026;-29
2022/07/12 03:38:07;;;;;;;2.70;2.50;;;17.70;79.50;;;;;;5013402;28;20018;-30
2022/07/12 03:40:34;;;;;;;2.60;2.40;;;17.70;79.60;;;;;;5013680;28;20061;-36
2022/07/12 03:43:00;;;;;;;2.75;2.53;;;17.70;79.60;;;;;;5013839;28;20096;-29
2022/07/12 03:45:25;;;;;;;2.80;2.60;;;17.70;79.70;;;;;;5010939;28;20397;-35
2022/07/12 03:47:51;;;;;;;3.00;2.70;;;17.70;79.70;;;;;;5013594;28;20091;-31
2022/07/12 03:50:17;;;;;;;2.53;2.33;;;17.70;79.70;;;;;;5013227;28;20169;-30
2022/07/12 03:52:43;;;;;;;3.83;2.60;;;17.70;79.80;;;;;;5013064;28;20501;-31
2022/07/12 03:55:13;;;;;;;3.05;2.80;;;17.70;79.80;;;;;;5012936;28;20069;-30
2022/07/12 03:57:39;;;;;;;2.88;2.67;;;17.70;79.90;;;;;;5013159;28;20034;-30
2022/07/12 04:00:12;;;;;;;3.47;3.05;;;17.80;79.90;;;;;;5013496;28;20080;-29
2022/07/12 04:02:39;;;;;;;2.83;2.63;;;17.70;79.90;;;;;;5012764;28;20131;-30
2022/07/12 04:05:06;;;;;;;3.33;3.03;;;17.80;79.90;;;;;;5012960;28;20124;-30
2022/07/12 04:07:32;;;;;;;2.90;2.70;;;17.70;79.80;;;;;;5013013;28;20013;-36
2022/07/12 04:09:57;;;;;;;3.13;2.83;;;17.70;79.90;;;;;;5012053;28;20029;-31
2022/07/12 04:12:23;;;;;;;3.05;2.78;;;17.80;79.90;;;;;;5012745;28;20026;-30
2022/07/12 04:14:49;;;;;;;3.42;3.13;;;17.80;79.90;;;;;;5012705;28;20112;-29
2022/07/12 04:17:14;;;;;;;3.40;3.10;;;17.70;79.90;;;;;;5012788;28;20036;-29
2022/07/12 04:19:40;;;;;;;3.58;3.28;;;17.80;80.00;;;;;;5012879;28;20021;-31
2022/07/12 04:22:05;;;;;;;3.40;3.20;;;17.80;80.00;;;;;;5012584;28;20489;-30
2022/07/12 04:24:31;;;;;;;3.08;2.88;;;17.80;80.00;;;;;;5012853;28;20030;-31
2022/07/12 04:26:56;;;;;;;4.93;3.55;;;17.80;79.90;;;;;;5012600;28;20018;-29
2022/07/12 04:29:22;;;;;;;3.63;3.33;;;17.80;80.00;;;;;;5012769;28;20061;-29
2022/07/12 04:31:48;;;;;;;3.78;3.47;;;17.80;80.00;;;;;;5012685;28;20030;-29
2022/07/12 04:34:17;;;;;;;3.92;3.63;;;17.80;80.00;;;;;;5012307;28;20018;-33
2022/07/12 04:36:47;;;;;;;3.38;3.08;;;17.80;80.00;;;;;;5012547;28;20484;-30
2022/07/12 04:39:13;;;;;;;3.85;3.47;;;17.80;80.00;;;;;;5012241;28;20022;-34
2022/07/12 04:41:39;;;;;;;3.78;3.47;;;17.90;80.00;;;;;;5012294;28;20041;-30
2022/07/12 04:44:05;;;;;;;3.50;3.20;;;17.90;80.00;;;;;;5012071;28;20067;-33
2022/07/12 04:46:31;;;;;;;3.80;3.50;;;17.90;80.00;;;;;;5010754;28;20113;-32
2022/07/12 04:48:57;;;;;;;3.80;3.50;;;17.90;80.00;;;;;;5012008;28;20029;-30
2022/07/12 04:51:22;;;;;;;3.60;3.30;;;18.00;80.00;;;;;;5012259;28;20014;-29
2022/07/12 04:53:48;;;;;;;3.50;3.20;;;18.00;80.00;;;;;;5012073;28;20508;-30
2022/07/12 04:56:14;;;;;;;3.38;3.13;;;18.00;80.00;;;;;;5013813;28;20022;-29
2022/07/12 04:58:39;;;;;;;3.92;3.53;;;18.00;80.00;;;;;;5018603;28;20026;-30
2022/07/12 05:01:05;;;;;;;3.92;3.63;;;18.10;80.00;;;;;;5018930;28;20095;-32
2022/07/12 05:03:30;;;;;;;3.45;3.17;;;18.00;80.50;;;;;;5018695;28;20030;-30
2022/07/12 05:05:56;;;;;;;3.80;3.50;;;18.10;80.00;;;;;;5019086;28;20088;-30
2022/07/12 05:08:22;;;;;;;4.10;3.80;;;18.10;79.90;;;;;;5018877;28;20072;-29
2022/07/12 05:10:48;;;;;;;5.05;4.00;;;18.20;79.90;;;;;;5018931;28;20036;-33
2022/07/12 05:13:14;;;;;;;4.82;4.43;;;18.20;79.90;;;;;;5018749;28;20072;-29
2022/07/12 05:15:39;;;;;;;5.50;5.00;;;18.20;79.90;;;;;;5018624;28;20022;-28
2022/07/12 05:18:05;;;;;;;4.93;4.50;;;18.20;79.90;;;;;;5019018;28;20064;-31
2022/07/12 05:20:31;;;;;;;4.28;3.88;;;18.30;79.90;;;;;;5018617;28;20084;-32
2022/07/12 05:22:56;;;;;;;4.50;4.07;;;18.30;79.80;;;;;;5018429;28;20037;-30
2022/07/12 05:25:22;;;;;;;4.40;4.05;;;18.40;79.70;;;;;;5018572;28;20108;-30
2022/07/12 05:27:48;;;;;;;4.68;4.28;;;18.40;79.70;;;;;;5018488;28;20501;-30
2022/07/12 05:30:13;;;;;;;4.53;4.13;;;18.50;79.70;;;;;;5018800;28;20485;-33
2022/07/12 05:32:39;;;;;;;4.53;4.22;;;18.50;79.60;;;;;;5018585;28;20033;-31
2022/07/12 05:35:05;;;;;;;4.65;4.25;;;18.50;79.50;;;;;;5018902;28;20033;-30
2022/07/12 05:37:31;;;;;;;6.10;5.50;;;18.60;79.50;;;;;;5018663;28;20026;-30
2022/07/12 05:39:56;;;;;;;7.47;6.78;;;18.60;79.50;;;;;;5018442;28;20484;-30
2022/07/12 05:42:22;;;;;;;8.85;8.05;;;18.70;79.40;;;;;;5018325;28;20072;-33
2022/07/12 05:44:47;;;;;;;6.55;5.95;;;18.80;79.40;;;;;;5018211;28;20096;-30
2022/07/12 05:47:13;;;;;;;6.53;6.03;;;18.80;79.30;;;;;;5018441;28;20037;-30
2022/07/12 05:49:38;;;;;;;6.55;6.05;;;18.90;79.30;;;;;;5018211;28;20037;-31
2022/07/12 05:54:48;;;;;;;7.38;6.15;;;18.90;79.20;;;;;;5018019;28;20045;-30
2022/07/12 05:57:15;;;;;;;6.97;5.70;;;19.00;79.20;;;;;;5018102;28;20465;-29
2022/07/12 05:59:41;;;;;;;6.43;5.78;;;19.00;79.10;;;;;;5017879;28;20018;-32
2022/07/12 06:02:07;;;;;;;5.95;5.07;;;19.10;79.10;;;;;;5018094;28;20064;-30
2022/07/12 06:04:32;;;;;;;5.38;4.88;;;19.10;79.00;;;;;;5017851;28;20053;-30
2022/07/12 06:06:58;;;;;;;5.03;4.53;;;19.20;78.90;;;;;;5018287;28;20030;-30
2022/07/12 06:09:23;;;;;;;5.00;4.60;;;19.20;78.80;;;;;;5014401;28;20113;-29
2022/07/12 06:11:49;;;;;;;5.25;4.85;;;19.30;78.70;;;;;;5014969;28;20029;-30
2022/07/12 06:14:14;;;;;;;5.45;4.95;;;19.40;78.60;;;;;;5014999;28;20040;-30
2022/07/12 06:16:40;;;;;;;5.07;4.57;;;19.40;78.50;;;;;;5015230;28;20140;-30
2022/07/12 06:19:05;;;;;;;4.30;3.90;;;19.50;78.40;;;;;;5014870;28;20090;-31
2022/07/12 06:21:31;;;;;;;3.95;3.63;;;19.60;78.20;;;;;;5014958;28;20092;-30
2022/07/12 06:23:57;;;;;;;4.50;4.10;;;19.70;78.10;;;;;;5014876;28;20026;-31
2022/07/12 06:26:22;;;;;;;4.00;3.60;;;19.80;78.00;;;;;;5015177;28;20128;-32
2022/07/12 06:28:48;;;;;;;4.57;3.50;;;19.80;77.80;;;;;;5014533;28;20040;-31
2022/07/12 06:31:13;;;;;;;4.38;3.78;;;19.90;77.70;;;;;;5014402;28;20037;-29
2022/07/12 06:33:39;;;;;;;3.95;3.65;;;20.00;77.70;;;;;;5014203;28;20109;-29
2022/07/12 06:36:04;;;;;;;5.82;4.35;;;20.00;77.50;;;;;;5014415;28;20018;-30
2022/07/12 06:38:30;;;;;;;5.65;4.40;;;20.00;77.50;;;;;;5014818;28;20022;-30
2022/07/12 06:40:55;;;;;;;4.05;3.65;;;20.10;77.40;;;;;;5014086;28;20014;-35
2022/07/12 06:43:21;;;;;;;4.28;3.90;;;20.10;77.30;;;;;;5014184;28;20109;-29
2022/07/12 06:45:47;;;;;;;4.82;3.83;;;20.20;77.30;;;;;;5014356;28;20533;-31
2022/07/12 06:48:12;;;;;;;4.55;3.78;;;20.20;77.30;;;;;;5014599;28;20109;-29
2022/07/12 06:50:38;;;;;;;3.65;3.33;;;20.20;77.20;;;;;;5014518;28;20018;-29
2022/07/12 06:53:03;;;;;;;3.05;2.83;;;20.20;77.20;;;;;;5014585;28;20032;-30
2022/07/12 06:55:30;;;;;;;3.80;3.50;;;20.30;77.20;;;;;;5014067;28;20025;-30
2022/07/12 06:57:56;;;;;;;3.47;3.05;;;20.30;77.20;;;;;;5014417;28;20014;-31
2022/07/12 07:00:21;;;;;;;3.60;3.30;;;20.30;77.10;;;;;;5013916;28;20104;-32
2022/07/12 07:02:47;;;;;;;2.88;2.67;;;20.40;77.10;;;;;;5012697;28;20053;-34
2022/07/12 07:05:15;;;;;;;3.20;2.72;;;20.40;77.00;;;;;;5013919;28;20453;-32
2022/07/12 07:07:41;;;;;;;2.83;2.63;;;20.50;76.80;;;;;;5014245;28;20036;-30
2022/07/12 07:10:07;;;;;;;3.13;2.85;;;20.60;76.60;;;;;;5014366;28;20021;-31
2022/07/12 07:12:32;;;;;;;2.78;2.58;;;20.70;76.40;;;;;;5014496;28;20033;-31
2022/07/12 07:14:58;;;;;;;3.30;2.88;;;20.80;76.30;;;;;;5014741;28;20026;-31
2022/07/12 07:17:23;;;;;;;2.90;2.70;;;20.90;76.10;;;;;;5014166;28;20113;-31
2022/07/12 07:19:49;;;;;;;3.22;2.95;;;21.00;75.90;;;;;;5013656;28;20339;-30
2022/07/12 07:22:14;;;;;;;2.85;2.50;;;21.10;75.60;;;;;;5013938;28;20335;-35
2022/07/12 07:24:41;;;;;;;3.00;2.53;;;21.30;75.30;;;;;;5013569;28;20060;-31
2022/07/12 07:27:07;;;;;;;2.50;2.28;;;21.40;75.00;;;;;;5013493;28;20022;-31
2022/07/12 07:32:18;;;;;;;2.47;2.28;;;21.80;74.40;;;;;;5013982;28;20053;-36
2022/07/12 07:34:43;;;;;;;2.63;2.40;;;22.00;74.10;;;;;;5012212;28;20021;-32
2022/07/12 07:37:09;;;;;;;2.55;2.13;;;22.10;73.70;;;;;;5013413;28;20042;-30
2022/07/12 07:39:35;;;;;;;1.98;1.85;;;22.20;73.30;;;;;;5013398;28;20022;-31
2022/07/12 07:42:01;;;;;;;2.47;2.28;;;22.20;73.00;;;;;;5013562;28;20022;-31
2022/07/12 07:44:27;;;;;;;2.20;2.00;;;22.30;72.90;;;;;;5013305;28;20489;-32
2022/07/12 07:46:52;;;;;;;2.45;2.30;;;22.30;72.60;;;;;;5013462;28;20025;-32
2022/07/12 07:49:18;;;;;;;2.80;2.30;;;22.30;72.50;;;;;;5013331;28;20022;-30
2022/07/12 07:51:43;;;;;;;2.20;2.10;;;22.30;72.40;;;;;;5013378;28;20021;-30
2022/07/12 07:54:09;;;;;;;2.83;2.50;;;22.30;72.50;;;;;;5013238;28;20508;-32
2022/07/12 07:56:34;;;;;;;3.03;2.53;;;22.20;72.40;;;;;;5013072;28;20065;-31
2022/07/12 07:59:00;;;;;;;2.53;2.30;;;22.20;72.40;;;;;;5013135;28;20072;-30
2022/07/12 08:04:13;;;;;;;2.40;2.20;;;22.20;72.30;;;;;;5013076;28;20563;-31
2022/07/12 08:06:39;;;;;;;2.47;2.28;;;22.20;72.00;;;;;;5012989;28;20061;-34
2022/07/12 08:09:05;;;;;;;3.55;3.10;;;22.30;71.90;;;;;;5012971;28;20053;-30
2022/07/12 08:11:31;;;;;;;2.70;2.50;;;22.30;71.70;;;;;;5013155;28;20072;-31
2022/07/12 08:13:57;;;;;;;3.45;3.15;;;22.40;71.60;;;;;;5013131;28;20037;-31
2022/07/12 08:16:22;;;;;;;2.30;2.10;;;22.50;71.50;;;;;;5013588;28;20017;-31
2022/07/12 08:18:48;;;;;;;1.92;1.83;;;22.40;71.40;;;;;;5013118;28;20370;-31
2022/07/12 08:21:13;;;;;;;2.63;2.30;;;22.40;71.30;;;;;;5013359;28;20045;-31
2022/07/12 08:23:39;;;;;;;2.50;2.30;;;22.50;71.30;;;;;;5012842;28;20127;-30
2022/07/12 08:26:04;;;;;;;2.40;2.20;;;22.50;71.10;;;;;;5013094;28;20030;-31
2022/07/12 08:28:30;;;;;;;2.85;2.65;;;22.50;71.00;;;;;;5012763;28;20034;-32
2022/07/12 08:30:55;;;;;;;2.85;2.35;;;22.60;70.80;;;;;;5012165;28;20030;-30
2022/07/12 08:33:21;;;;;;;2.25;2.15;;;22.60;70.60;;;;;;5012823;28;20065;-31
2022/07/12 08:35:46;;;;;;;2.22;2.10;;;22.70;70.40;;;;;;5012779;28;20025;-31
2022/07/12 08:38:15;;;;;;;2.40;2.20;;;22.80;70.30;;;;;;5012701;28;20432;-31
2022/07/12 08:40:41;;;;;;;2.05;1.92;;;22.80;70.20;;;;;;5011946;28;20014;-31
2022/07/12 08:43:06;;;;;;;2.42;2.22;;;22.80;70.00;;;;;;5012772;28;20072;-33
2022/07/12 08:45:32;;;;;;;2.70;2.50;;;22.80;69.90;;;;;;5012636;28;20085;-32
2022/07/12 08:47:58;;;;;;;2.30;2.10;;;22.80;69.80;;;;;;5012622;28;20061;-29
2022/07/12 08:50:25;;;;;;;2.25;2.05;;;22.90;69.80;;;;;;5013094;28;20026;-30
2022/07/12 08:52:52;;;;;;;2.17;1.92;;;22.90;69.60;;;;;;5012520;28;20030;-32
2022/07/12 08:55:28;;;;;;;3.13;1.98;;;23.00;69.40;;;;;;5012685;28;20022;-30
2022/07/12 08:57:56;;;;;;;2.22;2.00;;;23.00;69.10;;;;;;5012334;28;20026;-32
2022/07/12 09:00:23;;;;;;;2.58;2.38;;;23.00;69.00;;;;;;5012956;28;20022;-33
2022/07/12 09:02:56;;;;;;;2.42;2.22;;;23.00;68.80;;;;;;5012787;28;20034;-32
2022/07/12 09:05:27;;;;;;;2.63;2.03;;;23.10;68.70;;;;;;5012324;28;20042;-31
2022/07/12 09:08:04;;;;;;;2.10;1.90;;;23.10;68.60;;;;;;5012019;28;20137;-32
2022/07/12 09:10:29;;;;;;;2.72;2.10;;;23.10;68.50;;;;;;5012730;28;20436;-31
2022/07/12 09:12:55;;;;;;;2.17;1.98;;;23.20;68.60;;;;;;5012962;28;20030;-31
2022/07/12 09:15:23;;;;;;;2.40;2.20;;;23.30;68.40;;;;;;5012744;28;20101;-33
2022/07/12 09:18:04;;;;;;;2.67;2.33;;;23.30;68.30;;;;;;5011587;28;20025;-30
2022/07/12 09:20:36;;;;;;;3.30;2.70;;;23.40;68.00;;;;;;5013087;28;20094;-32
2022/07/12 09:23:05;;;;;;;3.33;2.15;;;23.40;67.90;;;;;;5012256;28;20389;-32
2022/07/12 09:25:34;;;;;;;1.80;1.70;;;23.50;67.70;;;;;;5012322;28;20030;-31
2022/07/12 09:28:03;;;;;;;2.10;1.67;;;23.50;67.50;;;;;;5012417;28;20045;-30
2022/07/12 09:30:30;;;;;;;2.22;2.03;;;23.50;67.20;;;;;;5012012;28;20084;-29
2022/07/12 09:36:07;;;;;;;1.75;1.65;;;23.60;66.70;;;;;;5012696;28;20041;-29
2022/07/12 09:38:34;;;;;;;2.17;1.58;;;23.70;66.70;;;;;;5012439;28;20030;-30
2022/07/12 09:41:00;;;;;;;1.63;1.52;;;23.60;66.50;;;;;;5012114;28;20112;-30
2022/07/12 09:43:27;;;;;;;1.63;1.52;;;23.70;66.40;;;;;;5012866;28;20084;-30
2022/07/12 09:45:53;;;;;;;3.33;1.95;;;23.70;66.20;;;;;;5015684;28;20025;-30
2022/07/12 09:48:22;;;;;;;4.60;1.65;;;23.70;65.90;;;;;;5015957;28;20113;-30
2022/07/12 09:50:50;;;;;;;2.47;1.40;;;23.80;65.70;;;;;;5016114;28;20474;-30
2022/07/12 09:53:37;;;;;;;1.30;1.20;;;23.90;65.70;;;;;;5015648;28;20109;-31
2022/07/12 09:56:05;;;;;;;1.67;1.40;;;24.00;65.60;;;;;;5015670;28;20048;-30
2022/07/12 09:58:38;;;;;;;1.70;1.40;;;24.10;65.40;;;;;;5015696;28;20097;-33
2022/07/12 10:01:07;;;;;;;2.00;1.45;;;24.10;65.00;;;;;;5015796;28;20441;-33
2022/07/12 10:03:35;;;;;;;1.35;1.25;;;24.30;64.90;;;;;;5015502;28;20033;-34
2022/07/12 10:06:02;;;;;;;1.40;1.15;;;24.30;64.70;;;;;;5015878;28;20034;-31
2022/07/12 10:08:29;;;;;;;1.33;1.25;;;24.30;64.50;;;;;;5016059;28;20032;-31
2022/07/12 10:10:56;;;;;;;1.40;1.30;;;24.50;64.20;;;;;;5015252;28;20108;-30
2022/07/12 10:13:22;;;;;;;3.40;1.40;;;24.50;64.00;;;;;;5015544;28;20096;-30
2022/07/12 10:15:49;;;;;;;1.83;1.40;;;24.60;63.90;;;;;;5015730;28;20037;-30
2022/07/12 10:18:20;;;;;;;1.60;1.42;;;24.70;63.70;;;;;;5015660;28;20050;-33
2022/07/12 10:20:49;;;;;;;1.40;1.00;;;24.80;63.30;;;;;;5015351;28;20477;-33
2022/07/12 10:23:36;;;;;;;1.00;1.00;;;24.90;63.20;;;;;;5015545;28;20036;-31
2022/07/12 10:26:37;;;;;;;1.42;1.10;;;25.00;62.50;;;;;;5015297;28;20030;-31
2022/07/12 10:29:09;;;;;;;1.23;1.05;;;25.10;62.30;;;;;;5014101;28;20077;-30
2022/07/12 10:31:40;;;;;;;1.27;1.17;;;25.20;62.00;;;;;;5015004;28;20084;-31
2022/07/12 10:34:19;;;;;;;1.80;1.23;;;25.20;61.90;;;;;;5015029;28;20056;-30
2022/07/12 10:36:56;;;;;;;1.90;0.90;;;25.30;61.70;;;;;;5015405;28;20121;-30
2022/07/12 10:39:26;;;;;;;1.10;0.80;;;25.40;61.70;;;;;;5015077;28;20029;-30
2022/07/12 10:42:07;;;;;;;1.15;1.05;;;25.40;61.50;;;;;;5015368;28;20129;-32
2022/07/12 10:44:38;;;;;;;1.48;1.00;;;25.50;61.20;;;;;;5015207;28;20394;-30
2022/07/12 10:47:05;;;;;;;1.85;1.10;;;25.60;60.70;;;;;;5015154;28;20040;-30
2022/07/12 10:49:32;;;;;;;3.25;0.93;;;25.70;60.60;;;;;;5015348;28;20105;-30
2022/07/12 10:52:10;;;;;;;0.82;0.80;;;25.80;60.20;;;;;;5015078;28;20030;-30
2022/07/12 10:54:39;;;;;;;1.00;1.00;;;25.90;59.90;;;;;;5014393;28;20037;-31
2022/07/12 10:57:06;;;;;;;1.88;0.93;;;26.00;59.80;;;;;;5015175;28;20061;-34
2022/07/12 10:59:37;;;;;;;1.20;1.00;;;26.10;59.50;;;;;;5014886;28;20481;-32
2022/07/12 11:02:04;;;;;;;1.45;0.80;;;26.10;59.10;;;;;;5013315;28;20474;-30
2022/07/12 11:04:29;;;;;;;0.80;0.80;;;26.20;58.80;;;;;;5013488;28;20096;-31
2022/07/12 11:06:57;;;;;;;1.98;0.80;;;26.30;58.50;;;;;;5014908;28;20041;-30
2022/07/12 11:09:24;;;;;;;2.00;1.10;;;26.40;58.40;;;;;;5014682;28;20032;-29
2022/07/12 11:11:52;;;;;;;1.55;1.27;;;26.40;58.00;;;;;;5014620;28;20052;-29
2022/07/12 11:14:25;;;;;;;1.05;0.98;;;26.50;57.50;;;;;;5014889;28;20627;-29
2022/07/12 11:16:53;;;;;;;2.80;1.30;;;26.50;57.30;;;;;;5014794;28;20026;-30
2022/07/12 11:19:23;;;;;;;1.40;1.30;;;26.60;57.00;;;;;;5014547;28;20026;-30
2022/07/12 11:21:55;;;;;;;2.65;1.60;;;26.70;56.70;;;;;;5015084;28;20037;-30
2022/07/12 11:24:31;;;;;;;1.63;1.52;;;26.70;56.50;;;;;;5014826;28;20107;-31
2022/07/12 11:26:59;;;;;;;1.38;1.27;;;26.70;56.30;;;;;;5014778;28;20058;-30
2022/07/12 11:29:25;;;;;;;1.40;1.30;;;26.70;56.40;;;;;;5014637;28;20018;-33
2022/07/12 11:32:00;;;;;;;2.00;1.15;;;26.70;56.30;;;;;;5014414;28;20394;-30
2022/07/12 11:34:26;;;;;;;1.50;1.40;;;26.80;56.50;;;;;;5014290;28;20338;-30
2022/07/12 11:36:55;;;;;;;1.67;1.13;;;26.80;56.30;;;;;;5014430;28;20022;-32
2022/07/12 11:39:34;;;;;;;1.40;1.13;;;26.90;56.20;;;;;;5014414;28;20033;-31
2022/07/12 11:42:00;;;;;;;2.15;1.10;;;27.00;56.10;;;;;;5013999;28;20034;-31
2022/07/12 11:44:44;;;;;;;1.17;1.08;;;27.10;55.90;;;;;;5013101;28;20022;-30
2022/07/12 11:47:10;;;;;;;1.60;1.50;;;27.30;55.70;;;;;;5012798;28;20037;-29
2022/07/12 11:49:37;;;;;;;1.75;1.65;;;27.40;55.60;;;;;;5013028;28;20112;-29
2022/07/12 11:52:05;;;;;;;2.03;1.90;;;27.40;55.20;;;;;;5013680;28;20034;-29
2022/07/12 11:54:31;;;;;;;1.90;1.80;;;27.50;55.10;;;;;;5014116;28;20040;-33
2022/07/12 11:57:10;;;;;;;3.08;2.20;;;27.50;55.10;;;;;;5013934;28;20100;-30
2022/07/12 11:59:36;;;;;;;2.67;2.47;;;27.50;54.80;;;;;;5013984;28;20032;-29
2022/07/12 12:02:04;;;;;;;3.72;1.90;;;27.50;54.90;;;;;;5014426;28;20513;-30
2022/07/12 12:04:29;;;;;;;2.60;1.98;;;27.50;54.80;;;;;;5013790;28;20064;-32
2022/07/12 12:06:55;;;;;;;2.10;1.90;;;27.50;54.70;;;;;;5013172;28;20108;-34
2022/07/12 12:09:20;;;;;;;2.47;2.00;;;27.50;54.70;;;;;;5013653;28;20482;-34
2022/07/12 12:11:46;;;;;;;2.72;1.98;;;27.60;54.30;;;;;;5013477;28;20101;-30
2022/07/12 12:14:12;;;;;;;3.13;2.20;;;27.60;54.30;;;;;;5013210;28;20036;-31
2022/07/12 12:16:38;;;;;;;3.53;2.20;;;27.70;54.00;;;;;;5014172;28;20485;-31
2022/07/12 12:19:10;;;;;;;1.92;1.83;;;27.80;53.80;;;;;;5014183;28;20030;-31
2022/07/12 12:21:36;;;;;;;1.90;1.73;;;27.80;53.40;;;;;;5013969;28;20111;-30
2022/07/12 12:24:11;;;;;;;1.80;1.70;;;27.90;53.40;;;;;;5013750;28;20026;-30
2022/07/12 12:26:37;;;;;;;3.50;1.58;;;28.00;53.20;;;;;;5013619;28;20038;-29
2022/07/12 12:29:03;;;;;;;1.85;1.63;;;28.00;52.90;;;;;;5013676;28;20038;-32
2022/07/12 12:31:28;;;;;;;1.40;1.30;;;28.00;52.80;;;;;;5013399;28;20064;-30
2022/07/12 12:33:58;;;;;;;2.28;1.60;;;28.10;52.90;;;;;;5013488;28;20461;-30
2022/07/12 12:36:25;;;;;;;1.45;1.35;;;28.20;52.20;;;;;;5013416;28;20018;-31
2022/07/12 12:38:53;;;;;;;1.60;1.50;;;28.30;52.00;;;;;;5013117;28;20084;-32
2022/07/12 12:41:22;;;;;;;1.90;1.80;;;28.30;52.20;;;;;;5013947;28;20045;-33
2022/07/12 12:43:55;;;;;;;1.95;1.73;;;28.40;51.20;;;;;;5013472;28;20061;-34
2022/07/12 12:46:21;;;;;;;3.38;2.10;;;28.40;51.30;;;;;;5013603;28;20529;-31
2022/07/12 12:48:47;;;;;;;1.80;1.63;;;28.30;51.20;;;;;;5013720;28;20030;-33
2022/07/12 12:51:13;;;;;;;1.73;1.40;;;28.30;51.30;;;;;;5013226;28;20030;-30
2022/07/12 12:53:40;;;;;;;2.33;2.15;;;28.30;51.30;;;;;;5013329;28;20105;-32
2022/07/12 12:56:16;;;;;;;1.52;1.42;;;28.40;50.90;;;;;;5013147;28;20025;-33
2022/07/12 12:58:42;;;;;;;1.70;1.60;;;28.40;51.10;;;;;;5013121;28;20515;-31